DAOF

Tindouf Airport

Tindouf, Algeria
METAR DAOF 191700Z 00000KT CAVOK 43/05 Q1010
Observed Flight Rules
Aug-19 @ 17:00 UTC (14 minutes ago) Visual Flight Rules
Visibility Clouds
10,000+ meters
  • Clear skies
Temperatures Readings
Current 43°C / 109°F
Dewpoint 5°C / 41°F
Humidity 10%
Altimeter 29.82" Hg
Pressure 1010 hPa
Elevation 431
METAR DAOF 191700Z 00000KT CAVOK 43/05 Q1010
Observed Flight Rules
Aug-19 @ 17:00 UTC
(14 minutes ago)
VFR
Clouds
  • Clear skies
Temperature Dewpoint
43°C / 109°F 5°C / 41°F
Humidity Altimeter Pressure
10% 29.82" Hg 1010 hPa